Terminal Aerodrome Forecast
Issued by NWS Omaha/Valley, NE

Home | Current Version | Previous Version | Text Only | Print | Product List | Glossary On
Versions: 1 2 3 4 5 6 7 8 9 10 11 12 13 14 15 16 17 18 19 20 21 22 23 24 25 26 27 28 29
000
FTUS43 KOAX 282320
TAFLNK
TAF
KLNK 282320Z 2900/2924 02005KT P6SM OVC100 PROB30 2914/2918 6SM -SN
      BR SCT015 OVC025
     FM291800 03013KT 4SM -SN OVC015=

USA.gov is the U.S. government's official web portal to all federal, state and local government web resources and services.